Time;durP1;ratioP1;P1;durP2;ratioP2;P2;SDS_P1;SDS_P2;PMS_P1;PMS_P2;Temp;Humidity;BMP_temperature;BMP_pressure;BME280_temperature;BME280_humidity;BME280_pressure;Samples;Min_cycle;Max_cycle;Signal;HPM_P1;HPM_P2
2021/08/16 09:17:38;;;;;;;10.03;8.03;;;;;;;25.15;100.00;98176.25;2346347;76;22715;-91
2021/08/16 09:20:48;;;;;;;11.50;9.38;;;;;;;25.22;100.00;98177.20;2288630;77;21071;-94
2021/08/16 09:23:48;;;;;;;10.18;7.58;;;;;;;25.34;100.00;98174.13;2284573;78;20978;-90
2021/08/16 09:26:48;;;;;;;9.55;8.65;;;;;;;25.49;100.00;98177.92;2255652;78;20989;-88
2021/08/16 09:29:48;;;;;;;8.73;7.87;;;;;;;25.62;100.00;98173.74;2323485;76;21008;-86
2021/08/16 09:32:49;;;;;;;9.48;8.58;;;;;;;25.77;100.00;98168.96;2289606;76;20945;-90
2021/08/16 09:35:50;;;;;;;12.53;11.22;;;;;;;25.93;100.00;98173.55;2318187;76;20930;-84
2021/08/16 09:38:50;;;;;;;10.00;8.13;;;;;;;26.10;100.00;98177.04;2320151;76;21063;-90
2021/08/16 09:41:51;;;;;;;9.78;8.88;;;;;;;26.24;100.00;98169.84;2322930;76;20922;-93
2021/08/16 09:44:53;;;;;;;12.23;8.98;;;;;;;26.33;100.00;98162.70;2332762;76;20984;-89
2021/08/16 09:47:56;;;;;;;10.58;8.58;;;;;;;26.43;100.00;98165.78;2293275;77;21452;-85
2021/08/16 09:50:57;;;;;;;10.00;7.95;;;;;;;26.48;99.66;98160.31;2321922;76;21482;-84
2021/08/16 09:53:57;;;;;;;9.50;7.97;;;;;;;26.55;99.18;98158.58;2289476;78;20976;-88
2021/08/16 09:56:58;;;;;;;8.63;7.62;;;;;;;26.60;98.89;98153.90;2325099;76;21443;-89
2021/08/16 09:59:59;;;;;;;8.65;7.75;;;;;;;26.63;97.36;98140.45;2289795;78;21038;-88
2021/08/16 10:02:59;;;;;;;11.25;8.25;;;;;;;26.70;97.24;98134.66;2332565;76;20964;-89
2021/08/16 10:06:00;;;;;;;9.63;7.55;;;;;;;26.78;97.31;98132.63;2338008;76;21057;-89
2021/08/16 10:09:00;;;;;;;8.75;8.00;;;;;;;26.88;97.01;98129.21;2340681;76;21009;-88
2021/08/16 10:12:01;;;;;;;8.20;7.45;;;;;;;26.98;96.34;98132.23;2303535;76;21040;-89
2021/08/16 10:15:02;;;;;;;8.45;7.25;;;;;;;27.05;95.38;98124.57;2309190;76;21531;-89
2021/08/16 10:18:03;;;;;;;10.72;7.60;;;;;;;27.11;94.93;98119.34;2319072;76;21001;-88
2021/08/16 10:21:03;;;;;;;9.33;7.37;;;;;;;27.17;95.26;98112.78;2306227;76;21032;-94
2021/08/16 10:24:04;;;;;;;8.95;8.08;;;;;;;27.20;94.45;98114.06;2332470;76;20977;-87
2021/08/16 10:27:05;;;;;;;7.60;7.00;;;;;;;27.29;94.23;98112.24;2323587;76;21007;-87
2021/08/16 10:30:05;;;;;;;8.88;7.70;;;;;;;27.37;92.20;98114.22;2288874;78;20937;-87
2021/08/16 10:33:06;;;;;;;9.08;8.13;;;;;;;27.46;90.85;98116.98;2286499;78;20989;-87
2021/08/16 10:36:07;;;;;;;9.65;8.18;;;;;;;27.54;89.99;98120.84;2286065;78;20969;-88
2021/08/16 10:39:07;;;;;;;8.08;7.28;;;;;;;27.60;89.21;98117.70;2310544;76;21013;-86
2021/08/16 10:42:11;;;;;;;8.78;7.53;;;;;;;27.65;88.81;98114.11;2302472;76;21003;-88
2021/08/16 10:45:12;;;;;;;10.08;7.35;;;;;;;27.69;88.32;98111.08;2311607;76;21009;-90
2021/08/16 10:48:16;;;;;;;8.23;7.45;;;;;;;27.72;87.29;98113.17;2300924;76;21486;-87
2021/08/16 10:51:15;;;;;;;8.75;7.92;;;;;;;27.74;86.16;98102.34;2313335;76;21038;-87
2021/08/16 10:54:16;;;;;;;11.28;8.33;;;;;;;27.76;84.59;98096.66;2299896;76;22088;-88
2021/08/16 10:57:23;;;;;;;7.97;7.22;;;;;;;27.76;84.23;98106.07;2312664;76;20949;-87
2021/08/16 11:00:19;;;;;;;8.38;7.17;;;;;;;27.76;83.80;98106.07;2208210;79;20976;-88
2021/08/16 11:03:20;;;;;;;11.88;7.08;;;;;;;27.73;83.39;98100.77;2253798;78;21488;-88
2021/08/16 11:06:21;;;;;;;11.10;7.67;;;;;;;27.77;82.51;98094.21;2255962;78;21008;-86
2021/08/16 11:09:21;;;;;;;11.18;7.78;;;;;;;27.82;82.24;98102.17;2245856;78;21497;-87
2021/08/16 11:12:22;;;;;;;10.30;8.98;;;;;;;27.85;81.43;98094.82;2219653;79;20978;-89
2021/08/16 11:15:23;;;;;;;8.83;7.90;;;;;;;27.89;81.43;98095.81;2231481;79;21017;-88
2021/08/16 11:18:23;;;;;;;12.28;7.90;;;;;;;27.95;81.09;98093.77;2205274;81;21010;-90
2021/08/16 11:21:30;;;;;;;10.93;8.48;;;;;;;28.04;81.06;98093.27;2204962;80;21031;-88
2021/08/16 11:24:30;;;;;;;9.63;7.67;;;;;;;28.15;80.75;98091.10;2207998;79;20998;-86
2021/08/16 11:27:31;;;;;;;9.00;6.70;;;;;;;28.21;79.47;98086.63;2207534;81;21073;-88
2021/08/16 11:30:32;;;;;;;7.40;6.42;;;;;;;28.25;78.25;98081.41;2201881;81;20961;-83
2021/08/16 11:33:33;;;;;;;8.20;6.00;;;;;;;28.26;77.00;98074.40;2201798;80;21037;-83
2021/08/16 11:36:33;;;;;;;6.45;5.85;;;;;;;28.30;77.13;98068.66;2202027;80;21014;-85
2021/08/16 11:39:34;;;;;;;6.10;5.45;;;;;;;28.34;75.96;98079.58;2201935;81;21496;-85
2021/08/16 11:42:35;;;;;;;7.35;6.28;;;;;;;28.35;75.18;98073.13;2201574;81;21520;-86
2021/08/16 11:45:37;;;;;;;11.57;5.97;;;;;;;28.39;76.26;98073.28;2201694;80;21064;-91
2021/08/16 11:48:37;;;;;;;7.30;5.97;;;;;;;28.39;74.85;98074.63;2201994;80;20972;-90
2021/08/16 11:51:40;;;;;;;6.25;5.58;;;;;;;28.38;75.06;98064.41;2202419;80;21566;-91
2021/08/16 11:54:41;;;;;;;6.53;5.58;;;;;;;28.41;74.97;98069.16;2201954;80;21032;-90
2021/08/16 11:57:41;;;;;;;8.00;5.70;;;;;;;28.40;74.43;98063.54;2201960;80;21060;-89
2021/08/16 12:00:42;;;;;;;10.50;5.60;;;;;;;28.40;74.42;98054.12;2202137;80;21036;-91
2021/08/16 12:03:43;;;;;;;9.83;6.28;;;;;;;28.37;74.21;98053.41;2201906;80;21057;-89
2021/08/16 12:06:44;;;;;;;8.58;5.95;;;;;;;28.36;73.96;98051.83;2202175;80;21386;-88
2021/08/16 12:09:45;;;;;;;7.05;5.15;;;;;;;28.36;74.11;98044.30;2202010;80;21039;-90
2021/08/16 12:12:45;;;;;;;5.75;5.22;;;;;;;28.33;73.23;98039.76;2202185;80;20977;-91
2021/08/16 12:15:46;;;;;;;6.75;5.15;;;;;;;28.34;73.47;98037.86;2204564;79;21214;-90
2021/08/16 12:18:47;;;;;;;6.53;5.90;;;;;;;28.35;72.98;98035.44;2187264;81;20997;-90
2021/08/16 12:21:48;;;;;;;5.05;4.62;;;;;;;28.37;72.89;98032.42;2226467;80;21053;-90
2021/08/16 12:24:49;;;;;;;5.53;4.92;;;;;;;28.38;73.00;98034.01;2226392;80;21040;-90
2021/08/16 12:27:50;;;;;;;5.15;4.53;;;;;;;28.38;72.21;98034.80;2225703;80;21509;-89
2021/08/16 12:30:50;;;;;;;6.45;5.00;;;;;;;28.40;71.83;98033.14;2225911;80;21004;-89
2021/08/16 12:33:51;;;;;;;10.10;5.20;;;;;;;28.38;71.57;98032.66;2226063;80;21019;-90
2021/08/16 12:36:53;;;;;;;6.97;5.40;;;;;;;28.38;71.78;98035.36;2226401;80;21029;-90
2021/08/16 12:39:54;;;;;;;5.72;4.53;;;;;;;28.39;71.68;98028.86;2225935;80;21035;-90
2021/08/16 12:42:55;;;;;;;6.35;4.78;;;;;;;28.39;71.39;98029.66;2226000;80;20978;-89
2021/08/16 12:45:56;;;;;;;5.75;5.30;;;;;;;28.41;71.02;98027.44;2226308;80;20970;-90
2021/08/16 12:48:57;;;;;;;7.20;5.00;;;;;;;28.41;70.82;98032.03;2225723;80;21033;-88
2021/08/16 12:51:59;;;;;;;5.47;4.97;;;;;;;28.40;71.01;98025.06;2225890;80;20956;-89
2021/08/16 12:55:00;;;;;;;7.28;4.83;;;;;;;28.38;71.08;98028.07;2227029;80;20938;-87
2021/08/16 12:58:04;;;;;;;5.80;4.47;;;;;;;28.39;70.44;98027.52;2225787;80;21005;-87
2021/08/16 13:01:03;;;;;;;5.20;4.80;;;;;;;28.40;71.11;98033.93;2226300;79;21522;-87
2021/08/16 13:04:04;;;;;;;5.83;5.03;;;;;;;28.43;71.02;98034.64;2226303;79;20974;-87
2021/08/16 13:07:05;;;;;;;5.50;4.75;;;;;;;28.43;70.45;98042.72;2225659;80;21009;-86
2021/08/16 13:10:06;;;;;;;6.60;5.20;;;;;;;28.40;70.69;98040.66;2225768;80;21009;-87
2021/08/16 13:13:06;;;;;;;11.53;5.80;;;;;;;28.40;70.57;98035.83;2225948;80;21076;-89
2021/08/16 13:16:07;;;;;;;6.70;4.45;;;;;;;28.40;70.21;98027.20;2224243;79;21088;-89
2021/08/16 13:19:08;;;;;;;7.62;5.33;;;;;;;28.41;70.20;98025.30;2216841;80;21001;-89
2021/08/16 13:22:09;;;;;;;5.33;4.85;;;;;;;28.44;70.18;98024.66;2216817;80;21523;-89
2021/08/16 13:25:11;;;;;;;6.92;5.17;;;;;;;28.44;70.12;98014.72;2190576;80;20979;-90
2021/08/16 13:28:12;;;;;;;5.70;5.20;;;;;;;28.45;70.42;98009.57;2216851;80;20993;-87
2021/08/16 13:31:13;;;;;;;8.25;4.83;;;;;;;28.47;70.20;98003.87;2216806;80;21029;-85
2021/08/16 13:34:14;;;;;;;6.10;5.25;;;;;;;28.43;70.10;98007.72;2216951;80;20999;-86
2021/08/16 13:37:15;;;;;;;11.18;5.85;;;;;;;28.44;70.64;98011.20;2216885;80;21010;-86
2021/08/16 13:40:16;;;;;;;6.95;5.40;;;;;;;28.45;69.99;98000.70;2216775;80;21265;-85
2021/08/16 13:43:16;;;;;;;8.03;5.40;;;;;;;28.42;69.70;98002.09;2217159;79;21512;-86
2021/08/16 13:46:17;;;;;;;6.42;5.17;;;;;;;28.41;69.29;97993.00;2227587;78;20933;-85
2021/08/16 13:49:18;;;;;;;6.65;5.22;;;;;;;28.40;69.31;97986.82;2251402;78;20986;-86
2021/08/16 13:52:19;;;;;;;5.30;4.33;;;;;;;28.43;69.34;97996.16;2215352;80;21540;-86
2021/08/16 13:55:19;;;;;;;6.00;5.05;;;;;;;28.46;69.26;97992.86;2215484;80;21513;-88
2021/08/16 13:58:20;;;;;;;8.60;5.50;;;;;;;28.47;69.23;97995.23;2216439;80;21026;-88
2021/08/16 14:01:21;;;;;;;8.70;6.15;;;;;;;28.47;68.77;97983.13;2216840;80;21018;-85
2021/08/16 14:04:22;;;;;;;7.22;5.37;;;;;;;28.48;68.28;97982.56;2217080;80;21465;-88
2021/08/16 14:07:22;;;;;;;5.03;3.90;;;;;;;28.46;67.81;97978.05;2216616;80;21125;-87
2021/08/16 14:10:23;;;;;;;5.97;5.42;;;;;;;28.48;66.91;97971.80;2216945;80;20986;-87
2021/08/16 14:13:28;;;;;;;5.50;5.00;;;;;;;28.50;67.09;97967.67;2216977;80;21069;-87
2021/08/16 14:16:27;;;;;;;5.47;4.90;;;;;;;28.51;67.15;97965.77;2216602;79;21548;-86
2021/08/16 14:19:27;;;;;;;6.25;4.90;;;;;;;28.53;66.91;97958.98;2216957;80;21018;-87
2021/08/16 14:22:28;;;;;;;5.05;4.58;;;;;;;28.54;66.69;97963.27;2217145;80;21321;-88
2021/08/16 14:25:29;;;;;;;6.72;5.00;;;;;;;28.55;66.47;97962.16;2217022;80;21010;-87
2021/08/16 14:28:30;;;;;;;5.30;4.87;;;;;;;28.56;65.83;97955.66;2217188;80;20998;-88
2021/08/16 14:31:32;;;;;;;5.08;4.22;;;;;;;28.55;65.40;97954.62;2216959;80;21073;-88
2021/08/16 14:34:32;;;;;;;4.85;4.53;;;;;;;28.53;65.21;97956.30;2216974;80;21094;-87
2021/08/16 14:37:33;;;;;;;5.78;4.95;;;;;;;28.53;64.99;97954.12;2216840;80;20978;-88
2021/08/16 14:40:34;;;;;;;7.37;4.40;;;;;;;28.57;65.03;97962.62;2216567;80;21324;-87
2021/08/16 14:43:35;;;;;;;7.10;4.80;;;;;;;28.58;65.10;97965.55;2216639;80;21532;-88
2021/08/16 14:46:36;;;;;;;5.05;4.62;;;;;;;28.55;64.55;97968.89;2216373;80;21025;-88
2021/08/16 14:49:37;;;;;;;5.12;4.62;;;;;;;28.53;64.23;97971.63;2216836;80;21089;-89
2021/08/16 14:52:38;;;;;;;5.25;4.45;;;;;;;28.47;64.30;97975.59;2216894;80;20983;-87
2021/08/16 14:55:40;;;;;;;5.58;4.12;;;;;;;28.39;64.76;97983.10;2216967;80;21541;-88
2021/08/16 14:58:40;;;;;;;5.00;4.60;;;;;;;28.33;65.01;97973.02;2217012;80;21358;-88
2021/08/16 15:01:41;;;;;;;5.72;4.28;;;;;;;28.27;65.25;97969.67;2216899;80;21049;-88
2021/08/16 15:04:42;;;;;;;8.00;5.15;;;;;;;28.24;65.31;97963.55;2216805;80;20990;-87
2021/08/16 15:07:43;;;;;;;4.75;4.35;;;;;;;28.26;65.49;97960.57;2216954;80;21469;-87
2021/08/16 15:10:44;;;;;;;8.73;4.37;;;;;;;28.30;65.53;97958.30;2216839;80;21007;-88
2021/08/16 15:13:45;;;;;;;4.72;4.12;;;;;;;28.37;65.66;97955.71;2217080;80;20998;-87
2021/08/16 15:16:45;;;;;;;4.62;3.85;;;;;;;28.42;65.72;97967.11;2218268;79;21014;-87
2021/08/16 15:19:47;;;;;;;6.40;5.00;;;;;;;28.45;65.88;97965.15;2226897;79;21314;-87
2021/08/16 15:22:47;;;;;;;6.53;5.08;;;;;;;28.47;66.06;97960.80;2226951;79;21042;-88
2021/08/16 15:25:48;;;;;;;7.92;5.12;;;;;;;28.49;66.50;97967.44;2227051;80;21029;-87
2021/08/16 15:28:49;;;;;;;9.50;6.03;;;;;;;28.47;67.03;97964.83;2226834;79;21061;-91
2021/08/16 15:31:50;;;;;;;9.63;5.60;;;;;;;28.43;67.26;97970.03;2227227;80;21885;-93
2021/08/16 15:34:52;;;;;;;8.13;5.15;;;;;;;28.42;67.42;97967.11;2227099;79;21549;-88
2021/08/16 15:37:53;;;;;;;8.38;5.10;;;;;;;28.43;67.77;97974.07;2226983;79;21041;-92
2021/08/16 15:40:54;;;;;;;7.00;4.90;;;;;;;28.40;68.34;97973.92;2227704;79;21544;-90
2021/08/16 15:43:55;;;;;;;8.53;5.45;;;;;;;28.37;68.63;97967.82;2228060;80;21029;-94
2021/08/16 15:46:56;;;;;;;7.75;5.90;;;;;;;28.32;68.63;97964.71;2227509;79;21029;-90
2021/08/16 15:49:57;;;;;;;8.40;6.08;;;;;;;28.28;68.82;97967.77;2227140;79;21089;-91
2021/08/16 15:52:57;;;;;;;8.20;6.50;;;;;;;28.22;69.18;97967.66;2227043;79;21053;-92
2021/08/16 15:55:58;;;;;;;6.37;5.83;;;;;;;28.17;69.32;97967.83;2227208;79;21099;-91
2021/08/16 15:58:59;;;;;;;13.95;6.42;;;;;;;28.11;69.70;97972.55;2226956;79;21509;-91
2021/08/16 16:02:00;;;;;;;9.48;6.78;;;;;;;28.05;70.08;97972.44;2227275;79;20995;-92
2021/08/16 16:05:01;;;;;;;9.13;6.95;;;;;;;27.97;70.52;97975.88;2227420;79;20966;-90
2021/08/16 16:08:02;;;;;;;7.75;6.37;;;;;;;27.91;70.91;97977.14;2227244;79;20960;-93
2021/08/16 16:11:02;;;;;;;8.38;6.00;;;;;;;27.86;71.29;97969.20;2227382;79;20962;-92
2021/08/16 16:14:03;;;;;;;11.00;6.30;;;;;;;27.78;71.54;97963.47;2227187;79;20970;-91
2021/08/16 16:17:04;;;;;;;10.08;5.83;;;;;;;27.70;72.01;97966.11;2227271;79;22126;-89
2021/08/16 16:20:05;;;;;;;10.60;6.08;;;;;;;27.62;72.43;97969.55;2227395;79;21030;-89
2021/08/16 16:23:06;;;;;;;10.85;6.97;;;;;;;27.54;73.34;97963.02;2227581;79;21533;-93
2021/08/16 16:26:06;;;;;;;11.63;8.75;;;;;;;27.47;73.76;97958.63;2227105;80;21049;-90
2021/08/16 16:29:07;;;;;;;10.03;6.35;;;;;;;27.40;74.17;97960.39;2227777;79;21486;-92
2021/08/16 16:32:08;;;;;;;10.15;6.37;;;;;;;27.34;74.41;97950.89;2228081;79;21037;-94
2021/08/16 16:35:09;;;;;;;6.87;5.37;;;;;;;27.30;74.94;97955.28;2227831;79;21016;-93
2021/08/16 16:38:10;;;;;;;6.90;5.33;;;;;;;27.23;74.88;97950.08;2196629;80;20950;-94
2021/08/16 16:41:11;;;;;;;7.00;4.85;;;;;;;27.15;75.06;97947.58;2228163;80;20974;-90
2021/08/16 16:44:11;;;;;;;10.13;6.15;;;;;;;27.07;74.69;97946.44;2228226;79;20990;-90
2021/08/16 16:47:12;;;;;;;7.20;4.85;;;;;;;27.03;74.83;97952.72;2226823;79;21532;-92
2021/08/16 16:50:13;;;;;;;6.55;4.70;;;;;;;27.02;74.74;97955.12;2227543;79;21517;-91
2021/08/16 16:53:14;;;;;;;5.58;5.08;;;;;;;27.02;74.86;97955.12;2227426;79;20993;-92
2021/08/16 16:56:15;;;;;;;5.87;4.78;;;;;;;27.02;75.15;97944.39;2227467;79;21112;-90
2021/08/16 16:59:15;;;;;;;6.75;5.05;;;;;;;26.98;75.29;97944.21;2227248;79;20974;-89
2021/08/16 17:02:16;;;;;;;6.03;5.42;;;;;;;26.92;75.19;97947.55;2227172;79;21017;-90
2021/08/16 17:05:17;;;;;;;5.47;4.97;;;;;;;26.85;74.91;97946.39;2227300;79;21108;-86
2021/08/16 17:08:18;;;;;;;5.17;4.42;;;;;;;26.76;74.78;97952.23;2227264;79;20974;-93
2021/08/16 17:11:19;;;;;;;5.15;4.65;;;;;;;26.65;74.88;97956.48;2227626;79;21002;-90
2021/08/16 17:14:20;;;;;;;7.15;4.80;;;;;;;26.51;74.83;97952.23;2227527;79;20990;-90
2021/08/16 17:17:21;;;;;;;6.67;5.17;;;;;;;26.42;75.39;97964.23;2225410;80;21089;-90
2021/08/16 17:20:21;;;;;;;7.33;5.15;;;;;;;26.30;75.83;97967.40;2218205;80;21027;-91
2021/08/16 17:23:22;;;;;;;10.50;5.90;;;;;;;26.20;76.33;97966.27;2217726;80;20990;-92
2021/08/16 17:26:23;;;;;;;9.40;5.83;;;;;;;26.03;76.62;97966.07;2217300;80;21505;-92
2021/08/16 17:29:24;;;;;;;9.68;5.90;;;;;;;25.90;77.03;97966.33;2217642;80;21915;-92
2021/08/16 17:32:25;;;;;;;8.93;5.37;;;;;;;25.77;77.00;97965.20;2217679;80;20990;-92
2021/08/16 17:35:26;;;;;;;7.12;4.65;;;;;;;25.65;77.38;97958.17;2217457;80;21565;-93
2021/08/16 17:38:26;;;;;;;5.35;4.85;;;;;;;25.53;77.23;97953.84;2218292;80;21009;-91
2021/08/16 17:41:27;;;;;;;8.48;6.97;;;;;;;25.43;77.31;97964.73;2221583;80;21025;-91
2021/08/16 17:44:28;;;;;;;7.55;6.10;;;;;;;25.33;77.57;97964.36;2221628;80;21353;-92
2021/08/16 17:47:29;;;;;;;9.05;4.97;;;;;;;25.22;77.84;97969.06;2221581;80;20986;-90
2021/08/16 17:50:30;;;;;;;7.95;5.83;;;;;;;25.11;78.06;97977.02;2218205;80;21410;-91
2021/08/16 17:53:30;;;;;;;6.47;5.70;;;;;;;24.99;78.37;97977.98;2218508;80;20990;-93
2021/08/16 17:56:31;;;;;;;12.80;6.47;;;;;;;24.89;78.65;97982.95;2218057;80;20994;-92
2021/08/16 17:59:32;;;;;;;7.42;5.53;;;;;;;24.79;79.24;97980.42;2217934;80;21026;-93
2021/08/16 18:02:33;;;;;;;8.00;5.50;;;;;;;24.73;79.96;97996.28;2218544;79;20950;-94
2021/08/16 18:05:34;;;;;;;7.25;5.50;;;;;;;24.65;80.06;97994.25;2242546;79;20988;-92
2021/08/16 18:08:38;;;;;;;12.03;6.15;;;;;;;24.60;80.54;97991.12;2230299;79;21005;-92
2021/08/16 18:11:40;;;;;;;8.60;6.55;;;;;;;24.58;80.86;97989.79;2247523;79;21119;-92
2021/08/16 18:14:41;;;;;;;10.58;6.47;;;;;;;24.54;81.20;97989.58;2244564;79;21044;-91
2021/08/16 18:17:41;;;;;;;10.10;6.17;;;;;;;24.46;81.26;97989.42;2245206;78;20981;-90
2021/08/16 18:20:42;;;;;;;12.78;7.30;;;;;;;24.39;81.56;97989.77;2232941;80;21514;-91
2021/08/16 18:23:42;;;;;;;9.65;7.87;;;;;;;24.34;81.93;97983.16;2244635;79;20977;-94
2021/08/16 18:26:43;;;;;;;9.85;7.83;;;;;;;24.28;82.26;97984.25;2239364;79;21438;-95
2021/08/16 18:29:46;;;;;;;12.03;8.63;;;;;;;24.22;82.71;97985.39;2220165;79;20986;-95
2021/08/16 18:32:46;;;;;;;14.05;9.20;;;;;;;24.18;83.05;97981.70;2223148;79;21278;-94
2021/08/16 18:35:47;;;;;;;10.70;8.08;;;;;;;24.16;83.66;97985.21;2220709;79;21437;-88
2021/08/16 18:38:47;;;;;;;11.18;9.55;;;;;;;24.11;83.98;97977.48;2205775;80;21026;-91
2021/08/16 18:41:48;;;;;;;11.60;9.80;;;;;;;24.11;84.48;97983.38;2235063;79;20997;-91
2021/08/16 18:44:49;;;;;;;14.33;9.35;;;;;;;24.06;84.72;97982.11;2206017;81;21010;-93
2021/08/16 18:47:50;;;;;;;14.47;8.78;;;;;;;24.01;84.90;97982.16;2206040;80;21469;-92
2021/08/16 18:50:51;;;;;;;11.73;8.10;;;;;;;23.95;85.17;97980.61;2223412;79;20961;-91
2021/08/16 18:53:51;;;;;;;12.10;8.85;;;;;;;23.88;85.50;97974.83;2233516;79;20950;-92
2021/08/16 18:56:52;;;;;;;9.78;8.40;;;;;;;23.82;85.74;97982.09;2216777;80;20962;-89
2021/08/16 18:59:53;;;;;;;10.30;8.73;;;;;;;23.76;85.93;97975.19;2238172;79;21012;-90
2021/08/16 19:02:53;;;;;;;13.45;9.53;;;;;;;23.75;85.91;97986.97;2223619;79;21005;-90
2021/08/16 19:05:54;;;;;;;9.30;8.08;;;;;;;23.70;85.93;97985.16;2238117;79;21009;-91
2021/08/16 19:08:57;;;;;;;13.40;8.93;;;;;;;23.69;86.27;97985.44;2223962;79;20994;-92
2021/08/16 19:11:57;;;;;;;12.03;8.28;;;;;;;23.65;86.50;97988.40;2220229;79;21054;-91
2021/08/16 19:14:58;;;;;;;10.25;8.25;;;;;;;23.62;87.20;98000.45;2242762;79;20989;-92
2021/08/16 19:17:59;;;;;;;9.95;8.20;;;;;;;23.58;87.54;97997.25;2233197;79;21058;-91
2021/08/16 19:21:00;;;;;;;10.18;8.50;;;;;;;23.54;88.07;98001.03;2222913;80;21572;-93
2021/08/16 19:24:01;;;;;;;10.05;8.03;;;;;;;23.51;88.29;98001.59;2203177;81;20985;-89
2021/08/16 19:27:01;;;;;;;10.82;9.33;;;;;;;23.50;88.44;98003.47;2203801;81;21536;-94
2021/08/16 19:30:02;;;;;;;9.43;8.55;;;;;;;23.50;88.63;97996.00;2203128;81;21012;-91
2021/08/16 19:33:03;;;;;;;9.58;7.40;;;;;;;23.46;88.65;97997.63;2202859;81;20957;-88
2021/08/16 19:36:04;;;;;;;13.28;9.08;;;;;;;23.41;88.92;97999.81;2200478;81;21026;-91
2021/08/16 19:39:05;;;;;;;9.23;7.72;;;;;;;23.37;88.84;97991.28;2200442;81;21009;-89
2021/08/16 19:42:05;;;;;;;11.22;7.37;;;;;;;23.32;89.44;97991.31;2199680;81;21336;-91
2021/08/16 19:45:06;;;;;;;13.62;7.55;;;;;;;23.28;89.84;97997.77;2200366;81;21017;-91
2021/08/16 19:48:07;;;;;;;7.60;6.85;;;;;;;23.28;90.21;97992.42;2200269;81;21016;-90
2021/08/16 19:51:07;;;;;;;7.97;7.28;;;;;;;23.28;90.38;97984.41;2199090;81;21005;-92
2021/08/16 19:54:11;;;;;;;10.18;8.10;;;;;;;23.30;90.80;97986.80;2200853;81;21497;-89
2021/08/16 19:57:13;;;;;;;8.70;7.80;;;;;;;23.28;90.83;97989.75;2200195;81;21034;-88
2021/08/16 20:00:14;;;;;;;9.10;6.85;;;;;;;23.30;90.97;97991.59;2200721;81;21477;-88
2021/08/16 20:03:14;;;;;;;8.90;7.70;;;;;;;23.28;91.12;97997.22;2200742;81;21026;-89
2021/08/16 20:06:15;;;;;;;8.23;6.65;;;;;;;23.30;90.99;97996.94;2201070;81;21063;-88
2021/08/16 20:09:16;;;;;;;9.98;7.92;;;;;;;23.27;90.95;97994.30;2200557;81;21072;-89
2021/08/16 20:12:17;;;;;;;7.35;6.45;;;;;;;23.28;90.99;97995.09;2198875;81;21016;-91
2021/08/16 20:15:18;;;;;;;11.22;7.15;;;;;;;23.30;90.93;97995.61;2199127;81;21353;-92
2021/08/16 20:18:19;;;;;;;9.35;7.65;;;;;;;23.30;90.73;98010.30;2205530;78;21040;-91
2021/08/16 20:21:19;;;;;;;9.05;7.85;;;;;;;23.27;90.30;98012.20;2229781;80;21021;-91
2021/08/16 20:24:21;;;;;;;8.05;6.70;;;;;;;23.24;90.19;98012.22;2230725;80;21047;-86
2021/08/16 20:27:22;;;;;;;9.30;7.03;;;;;;;23.25;90.11;98019.69;2229822;79;20999;-89
2021/08/16 20:30:22;;;;;;;7.37;5.87;;;;;;;23.24;89.77;98012.22;2230907;79;20977;-89
2021/08/16 20:33:23;;;;;;;9.48;6.12;;;;;;;23.25;89.12;98011.69;2230513;80;21041;-90
2021/08/16 20:36:24;;;;;;;6.70;6.10;;;;;;;23.25;88.67;98008.47;2231180;80;20985;-88
2021/08/16 20:39:25;;;;;;;7.53;6.33;;;;;;;23.25;88.47;97997.00;2232910;79;21143;-89
2021/08/16 20:42:25;;;;;;;6.58;5.75;;;;;;;23.24;87.99;98000.75;2232939;80;20976;-92
2021/08/16 20:45:26;;;;;;;7.83;5.60;;;;;;;23.18;87.84;97999.97;2233331;80;21099;-92
2021/08/16 20:48:27;;;;;;;7.15;6.40;;;;;;;23.13;87.70;98004.00;2233543;80;20973;-90
2021/08/16 20:51:28;;;;;;;8.15;5.33;;;;;;;23.07;87.71;97999.00;2233614;80;20993;-88
2021/08/16 20:54:28;;;;;;;6.42;5.83;;;;;;;22.99;87.61;97997.17;2235026;80;20992;-88
2021/08/16 20:57:29;;;;;;;5.60;5.10;;;;;;;22.94;87.79;98002.53;2233971;80;21020;-90
2021/08/16 21:00:30;;;;;;;7.03;6.30;;;;;;;22.94;87.83;98007.07;2234372;80;21059;-88
2021/08/16 21:03:30;;;;;;;8.95;6.80;;;;;;;22.92;87.72;98000.67;2234649;80;20981;-89
2021/08/16 21:06:31;;;;;;;7.83;5.33;;;;;;;22.89;87.55;98001.23;2234727;80;21096;-88
2021/08/16 21:09:32;;;;;;;7.47;5.65;;;;;;;22.86;87.41;97994.30;2235177;80;21601;-88
2021/08/16 21:12:33;;;;;;;7.62;4.90;;;;;;;22.80;87.18;97990.86;2234990;80;21499;-88
2021/08/16 21:15:35;;;;;;;5.12;4.55;;;;;;;22.76;86.98;97989.80;2235160;80;21001;-87
2021/08/16 21:18:35;;;;;;;6.03;4.92;;;;;;;22.70;86.88;97988.25;2234076;79;21080;-88
2021/08/16 21:21:36;;;;;;;6.78;4.65;;;;;;;22.65;86.99;97990.39;2231906;80;21156;-88
2021/08/16 21:24:37;;;;;;;5.03;4.50;;;;;;;22.61;86.88;97989.36;2231964;80;20977;-87
2021/08/16 21:27:37;;;;;;;7.15;5.05;;;;;;;22.57;86.87;97994.97;2231869;80;20973;-88
2021/08/16 21:30:38;;;;;;;5.85;4.95;;;;;;;22.56;86.82;98005.91;2231898;80;20985;-87
2021/08/16 21:33:39;;;;;;;6.80;4.83;;;;;;;22.53;86.76;97995.27;2231999;80;21475;-88
2021/08/16 21:36:39;;;;;;;5.87;5.30;;;;;;;22.53;86.84;97991.80;2231722;80;21080;-88
2021/08/16 21:39:40;;;;;;;6.30;5.70;;;;;;;22.53;86.79;97982.47;2232024;80;20977;-88
2021/08/16 21:42:41;;;;;;;7.50;5.40;;;;;;;22.53;86.59;97973.92;2231795;80;20992;-88
2021/08/16 21:45:49;;;;;;;5.35;4.90;;;;;;;22.49;86.61;97964.86;2231999;80;21118;-88
2021/08/16 21:48:44;;;;;;;9.70;5.45;;;;;;;22.45;86.78;97971.03;2228410;80;21057;-88
2021/08/16 21:51:45;;;;;;;8.63;5.30;;;;;;;22.40;87.55;97987.33;2231978;80;20973;-88
2021/08/16 21:54:45;;;;;;;5.35;4.85;;;;;;;22.34;87.71;97985.75;2231796;80;21024;-88
2021/08/16 21:57:46;;;;;;;6.42;4.78;;;;;;;22.29;88.01;97986.29;2231633;80;21024;-88
2021/08/16 22:00:47;;;;;;;6.80;5.05;;;;;;;22.27;88.20;97980.44;2231689;80;21077;-87
2021/08/16 22:03:49;;;;;;;5.55;4.70;;;;;;;22.21;88.54;97971.66;2231932;80;20961;-87
2021/08/16 22:06:50;;;;;;;7.95;5.72;;;;;;;22.19;88.88;97971.67;2231806;80;21049;-88
2021/08/16 22:09:50;;;;;;;7.80;5.20;;;;;;;22.15;89.07;97979.42;2231894;80;20980;-87
2021/08/16 22:12:53;;;;;;;5.80;4.70;;;;;;;22.10;89.09;97992.76;2231874;80;21005;-87
2021/08/16 22:15:54;;;;;;;5.05;4.62;;;;;;;22.04;89.50;97990.63;2230496;80;21481;-90
2021/08/16 22:18:54;;;;;;;4.87;4.47;;;;;;;21.99;89.51;97989.30;2228730;79;21112;-89
2021/08/16 22:21:58;;;;;;;6.28;4.62;;;;;;;21.93;89.53;97989.57;2228965;80;21013;-89
2021/08/16 22:24:59;;;;;;;5.53;5.03;;;;;;;21.89;89.89;97983.20;2229355;80;21068;-91
2021/08/16 22:28:00;;;;;;;6.40;5.80;;;;;;;21.85;89.99;97976.26;2229263;80;20973;-92
2021/08/16 22:31:00;;;;;;;6.60;4.70;;;;;;;21.84;90.17;97968.00;2229443;80;20984;-91
2021/08/16 22:34:01;;;;;;;5.40;4.97;;;;;;;21.80;90.23;97966.96;2229463;80;20992;-91
2021/08/16 22:37:02;;;;;;;5.50;5.00;;;;;;;21.75;90.23;97972.28;2229598;80;21024;-90
2021/08/16 22:40:02;;;;;;;7.42;4.75;;;;;;;21.68;90.22;97966.47;2229325;80;20990;-91
2021/08/16 22:43:03;;;;;;;4.92;4.45;;;;;;;21.65;90.47;97973.10;2229086;80;20969;-91
2021/08/16 22:46:04;;;;;;;5.20;4.37;;;;;;;21.61;90.49;97979.25;2230702;80;20988;-90
2021/08/16 22:49:04;;;;;;;5.37;4.67;;;;;;;21.60;90.64;97976.33;2230720;80;21020;-91
2021/08/16 22:52:05;;;;;;;5.25;4.70;;;;;;;21.57;90.63;97974.97;2229835;80;21000;-91
2021/08/16 22:55:06;;;;;;;5.72;4.25;;;;;;;21.57;90.75;97967.78;2230350;80;21095;-91
2021/08/16 22:58:07;;;;;;;8.35;4.90;;;;;;;21.57;90.83;97961.66;2230159;80;21009;-94
2021/08/16 23:01:07;;;;;;;4.95;4.55;;;;;;;21.55;90.83;97967.80;2229667;80;21100;-92
2021/08/16 23:04:08;;;;;;;7.17;4.05;;;;;;;21.52;90.80;97974.46;2229789;80;21048;-91
2021/08/16 23:07:09;;;;;;;6.30;4.62;;;;;;;21.48;90.83;97983.23;2229572;80;21012;-91
2021/08/16 23:10:09;;;;;;;5.80;4.70;;;;;;;21.48;91.22;97977.91;2230375;80;21040;-89
2021/08/16 23:13:10;;;;;;;4.80;4.30;;;;;;;21.46;91.24;97975.52;2231144;80;21048;-90
2021/08/16 23:16:11;;;;;;;6.40;5.03;;;;;;;21.46;91.28;97982.18;2230588;79;20996;-90
2021/08/16 23:19:12;;;;;;;6.72;5.12;;;;;;;21.44;91.64;97984.85;2229587;78;21056;-91
2021/08/16 23:22:12;;;;;;;6.62;5.62;;;;;;;21.39;92.20;97996.29;2229993;79;21012;-92
2021/08/16 23:25:13;;;;;;;7.40;5.85;;;;;;;21.37;92.96;98009.61;2229803;80;21041;-91